sensor_id;sensor_type;location;lat;lon;timestamp;temperature;humidity
16032;DHT22;8120;48.308;8.914;2023-07-31T00:00:57;12.10;79.50
16032;DHT22;8120;48.308;8.914;2023-07-31T00:03:25;12.10;80.10
16032;DHT22;8120;48.308;8.914;2023-07-31T00:05:53;12.00;80.00
16032;DHT22;8120;48.308;8.914;2023-07-31T00:08:21;11.90;80.40
16032;DHT22;8120;48.308;8.914;2023-07-31T00:10:51;11.90;80.30
16032;DHT22;8120;48.308;8.914;2023-07-31T00:13:19;11.80;81.00
16032;DHT22;8120;48.308;8.914;2023-07-31T00:15:47;12.00;80.50
16032;DHT22;8120;48.308;8.914;2023-07-31T00:18:16;12.20;78.60
16032;DHT22;8120;48.308;8.914;2023-07-31T00:20:44;12.40;78.30
16032;DHT22;8120;48.308;8.914;2023-07-31T00:23:12;12.70;77.40
16032;DHT22;8120;48.308;8.914;2023-07-31T00:25:40;12.90;76.20
16032;DHT22;8120;48.308;8.914;2023-07-31T00:28:08;13.00;75.70
16032;DHT22;8120;48.308;8.914;2023-07-31T00:30:36;13.10;75.30
16032;DHT22;8120;48.308;8.914;2023-07-31T00:33:03;13.20;74.60
16032;DHT22;8120;48.308;8.914;2023-07-31T00:35:33;13.20;74.90
16032;DHT22;8120;48.308;8.914;2023-07-31T00:38:00;13.20;74.60
16032;DHT22;8120;48.308;8.914;2023-07-31T00:40:28;13.20;74.30
16032;DHT22;8120;48.308;8.914;2023-07-31T00:42:56;13.30;74.00
16032;DHT22;8120;48.308;8.914;2023-07-31T00:45:27;13.40;73.40
16032;DHT22;8120;48.308;8.914;2023-07-31T00:47:55;13.40;73.50
16032;DHT22;8120;48.308;8.914;2023-07-31T00:50:24;13.50;73.40
16032;DHT22;8120;48.308;8.914;2023-07-31T00:52:54;13.50;73.50
16032;DHT22;8120;48.308;8.914;2023-07-31T00:55:21;13.40;73.50
16032;DHT22;8120;48.308;8.914;2023-07-31T00:57:50;13.40;73.40
16032;DHT22;8120;48.308;8.914;2023-07-31T01:00:19;13.40;73.60
16032;DHT22;8120;48.308;8.914;2023-07-31T01:02:47;13.40;73.70
16032;DHT22;8120;48.308;8.914;2023-07-31T01:05:16;13.40;73.80
16032;DHT22;8120;48.308;8.914;2023-07-31T01:07:51;13.30;74.00
16032;DHT22;8120;48.308;8.914;2023-07-31T01:10:24;13.20;74.30
16032;DHT22;8120;48.308;8.914;2023-07-31T01:12:54;13.10;75.00
16032;DHT22;8120;48.308;8.914;2023-07-31T01:15:23;13.10;75.20
16032;DHT22;8120;48.308;8.914;2023-07-31T01:17:51;13.00;75.60
16032;DHT22;8120;48.308;8.914;2023-07-31T01:20:21;13.00;75.80
16032;DHT22;8120;48.308;8.914;2023-07-31T01:23:22;13.00;75.70
16032;DHT22;8120;48.308;8.914;2023-07-31T01:26:16;13.00;75.90
16032;DHT22;8120;48.308;8.914;2023-07-31T01:28:59;12.90;76.00
16032;DHT22;8120;48.308;8.914;2023-07-31T01:31:29;12.90;76.10
16032;DHT22;8120;48.308;8.914;2023-07-31T01:33:59;12.90;76.00
16032;DHT22;8120;48.308;8.914;2023-07-31T01:36:28;12.90;76.20
16032;DHT22;8120;48.308;8.914;2023-07-31T01:38:58;12.70;77.10
16032;DHT22;8120;48.308;8.914;2023-07-31T01:41:28;12.60;77.60
16032;DHT22;8120;48.308;8.914;2023-07-31T01:43:56;12.40;78.50
16032;DHT22;8120;48.308;8.914;2023-07-31T01:46:24;12.20;78.90
16032;DHT22;8120;48.308;8.914;2023-07-31T01:48:52;12.20;79.00
16032;DHT22;8120;48.308;8.914;2023-07-31T01:51:19;12.20;79.30
16032;DHT22;8120;48.308;8.914;2023-07-31T01:53:47;12.30;78.70
16032;DHT22;8120;48.308;8.914;2023-07-31T01:56:15;12.40;78.40
16032;DHT22;8120;48.308;8.914;2023-07-31T01:58:44;12.50;78.10
16032;DHT22;8120;48.308;8.914;2023-07-31T02:01:12;12.50;78.30
16032;DHT22;8120;48.308;8.914;2023-07-31T02:03:40;12.30;78.70
16032;DHT22;8120;48.308;8.914;2023-07-31T02:06:09;12.20;79.40
16032;DHT22;8120;48.308;8.914;2023-07-31T02:08:37;12.20;79.60
16032;DHT22;8120;48.308;8.914;2023-07-31T02:11:04;12.20;79.30
16032;DHT22;8120;48.308;8.914;2023-07-31T02:13:32;12.20;79.70
16032;DHT22;8120;48.308;8.914;2023-07-31T02:16:01;12.20;79.80
16032;DHT22;8120;48.308;8.914;2023-07-31T02:18:29;12.20;79.80
16032;DHT22;8120;48.308;8.914;2023-07-31T02:20:57;12.20;79.60
16032;DHT22;8120;48.308;8.914;2023-07-31T02:23:25;12.10;80.00
16032;DHT22;8120;48.308;8.914;2023-07-31T02:25:53;12.00;80.50
16032;DHT22;8120;48.308;8.914;2023-07-31T02:28:21;11.70;81.10
16032;DHT22;8120;48.308;8.914;2023-07-31T02:30:50;11.60;81.60
16032;DHT22;8120;48.308;8.914;2023-07-31T02:33:20;11.60;82.10
16032;DHT22;8120;48.308;8.914;2023-07-31T02:35:48;11.50;82.20
16032;DHT22;8120;48.308;8.914;2023-07-31T02:38:15;11.40;82.80
16032;DHT22;8120;48.308;8.914;2023-07-31T02:40:43;11.40;82.80
16032;DHT22;8120;48.308;8.914;2023-07-31T02:43:12;11.30;83.90
16032;DHT22;8120;48.308;8.914;2023-07-31T02:45:39;11.30;83.90
16032;DHT22;8120;48.308;8.914;2023-07-31T02:48:07;11.20;84.20
16032;DHT22;8120;48.308;8.914;2023-07-31T02:50:37;11.30;84.20
16032;DHT22;8120;48.308;8.914;2023-07-31T02:53:04;11.40;84.30
16032;DHT22;8120;48.308;8.914;2023-07-31T02:55:32;11.40;83.70
16032;DHT22;8120;48.308;8.914;2023-07-31T02:58:00;11.40;83.80
16032;DHT22;8120;48.308;8.914;2023-07-31T03:00:28;11.40;84.00
16032;DHT22;8120;48.308;8.914;2023-07-31T03:02:56;11.30;83.60
16032;DHT22;8120;48.308;8.914;2023-07-31T03:05:24;11.10;84.60
16032;DHT22;8120;48.308;8.914;2023-07-31T03:07:53;10.90;85.70
16032;DHT22;8120;48.308;8.914;2023-07-31T03:10:21;10.70;86.70
16032;DHT22;8120;48.308;8.914;2023-07-31T03:12:49;10.60;86.50
16032;DHT22;8120;48.308;8.914;2023-07-31T03:15:17;10.60;87.30
16032;DHT22;8120;48.308;8.914;2023-07-31T03:17:45;10.50;87.90
16032;DHT22;8120;48.308;8.914;2023-07-31T03:20:12;10.50;87.80
16032;DHT22;8120;48.308;8.914;2023-07-31T03:22:44;10.50;87.60
16032;DHT22;8120;48.308;8.914;2023-07-31T03:25:14;10.50;87.30
16032;DHT22;8120;48.308;8.914;2023-07-31T03:27:42;10.40;87.80
16032;DHT22;8120;48.308;8.914;2023-07-31T03:30:10;10.40;87.90
16032;DHT22;8120;48.308;8.914;2023-07-31T03:32:38;10.30;88.50
16032;DHT22;8120;48.308;8.914;2023-07-31T03:35:06;10.30;88.70
16032;DHT22;8120;48.308;8.914;2023-07-31T03:37:34;10.40;88.50
16032;DHT22;8120;48.308;8.914;2023-07-31T03:40:02;10.40;88.50
16032;DHT22;8120;48.308;8.914;2023-07-31T03:42:32;10.40;88.20
16032;DHT22;8120;48.308;8.914;2023-07-31T03:45:00;10.40;88.40
16032;DHT22;8120;48.308;8.914;2023-07-31T03:47:28;10.40;88.30
16032;DHT22;8120;48.308;8.914;2023-07-31T03:49:56;10.60;88.40
16032;DHT22;8120;48.308;8.914;2023-07-31T03:52:24;10.80;88.20
16032;DHT22;8120;48.308;8.914;2023-07-31T03:54:52;11.10;86.90
16032;DHT22;8120;48.308;8.914;2023-07-31T03:57:20;11.30;85.40
16032;DHT22;8120;48.308;8.914;2023-07-31T03:59:49;11.30;84.70
16032;DHT22;8120;48.308;8.914;2023-07-31T04:02:17;11.30;84.50
16032;DHT22;8120;48.308;8.914;2023-07-31T04:04:45;11.30;84.50
16032;DHT22;8120;48.308;8.914;2023-07-31T04:07:13;11.30;84.70
16032;DHT22;8120;48.308;8.914;2023-07-31T04:09:41;11.30;84.80
16032;DHT22;8120;48.308;8.914;2023-07-31T04:12:09;11.50;84.40
16032;DHT22;8120;48.308;8.914;2023-07-31T04:14:37;11.80;82.70
16032;DHT22;8120;48.308;8.914;2023-07-31T04:17:06;11.90;81.80
16032;DHT22;8120;48.308;8.914;2023-07-31T04:19:38;12.00;81.50
16032;DHT22;8120;48.308;8.914;2023-07-31T04:22:05;12.10;80.10
16032;DHT22;8120;48.308;8.914;2023-07-31T04:24:33;12.30;79.60
16032;DHT22;8120;48.308;8.914;2023-07-31T04:27:01;12.40;78.80
16032;DHT22;8120;48.308;8.914;2023-07-31T04:29:29;12.40;79.00
16032;DHT22;8120;48.308;8.914;2023-07-31T04:31:57;12.30;79.70
16032;DHT22;8120;48.308;8.914;2023-07-31T04:34:26;12.30;80.30
16032;DHT22;8120;48.308;8.914;2023-07-31T04:36:54;12.30;80.70
16032;DHT22;8120;48.308;8.914;2023-07-31T04:39:22;12.30;80.80
16032;DHT22;8120;48.308;8.914;2023-07-31T04:41:50;12.40;80.10
16032;DHT22;8120;48.308;8.914;2023-07-31T04:44:18;12.60;78.50
16032;DHT22;8120;48.308;8.914;2023-07-31T04:46:45;12.90;77.90
16032;DHT22;8120;48.308;8.914;2023-07-31T04:49:13;12.90;77.50
16032;DHT22;8120;48.308;8.914;2023-07-31T04:51:43;12.70;78.20
16032;DHT22;8120;48.308;8.914;2023-07-31T04:54:10;12.70;78.40
16032;DHT22;8120;48.308;8.914;2023-07-31T04:56:41;12.60;78.90
16032;DHT22;8120;48.308;8.914;2023-07-31T04:59:09;12.50;79.30
16032;DHT22;8120;48.308;8.914;2023-07-31T05:01:37;12.50;79.90
16032;DHT22;8120;48.308;8.914;2023-07-31T05:04:05;12.60;79.00
16032;DHT22;8120;48.308;8.914;2023-07-31T05:06:32;12.80;78.70
16032;DHT22;8120;48.308;8.914;2023-07-31T05:09:02;12.90;79.10
16032;DHT22;8120;48.308;8.914;2023-07-31T05:11:30;13.20;78.40
16032;DHT22;8120;48.308;8.914;2023-07-31T05:13:57;13.60;76.20
16032;DHT22;8120;48.308;8.914;2023-07-31T05:16:25;14.10;75.60
16032;DHT22;8120;48.308;8.914;2023-07-31T05:18:53;14.20;74.60
16032;DHT22;8120;48.308;8.914;2023-07-31T05:21:21;14.30;71.80
16032;DHT22;8120;48.308;8.914;2023-07-31T05:23:49;14.60;71.30
16032;DHT22;8120;48.308;8.914;2023-07-31T05:26:18;14.90;69.00
16032;DHT22;8120;48.308;8.914;2023-07-31T05:28:46;15.20;68.30
16032;DHT22;8120;48.308;8.914;2023-07-31T05:31:14;15.40;67.70
16032;DHT22;8120;48.308;8.914;2023-07-31T05:33:41;15.40;67.00
16032;DHT22;8120;48.308;8.914;2023-07-31T05:36:10;15.50;66.60
16032;DHT22;8120;48.308;8.914;2023-07-31T05:38:38;15.50;66.50
16032;DHT22;8120;48.308;8.914;2023-07-31T05:41:09;15.30;67.20
16032;DHT22;8120;48.308;8.914;2023-07-31T05:43:38;15.10;68.10
16032;DHT22;8120;48.308;8.914;2023-07-31T05:46:06;15.10;68.70
16032;DHT22;8120;48.308;8.914;2023-07-31T05:48:35;15.20;68.40
16032;DHT22;8120;48.308;8.914;2023-07-31T05:51:03;15.30;67.50
16032;DHT22;8120;48.308;8.914;2023-07-31T05:53:31;15.50;67.10
16032;DHT22;8120;48.308;8.914;2023-07-31T05:55:59;15.50;67.00
16032;DHT22;8120;48.308;8.914;2023-07-31T05:58:27;15.50;67.80
16032;DHT22;8120;48.308;8.914;2023-07-31T06:00:56;15.70;67.50
16032;DHT22;8120;48.308;8.914;2023-07-31T06:03:24;15.80;67.40
16032;DHT22;8120;48.308;8.914;2023-07-31T06:05:52;15.80;67.20
16032;DHT22;8120;48.308;8.914;2023-07-31T06:08:20;16.00;66.70
16032;DHT22;8120;48.308;8.914;2023-07-31T06:10:48;16.20;66.40
16032;DHT22;8120;48.308;8.914;2023-07-31T06:13:16;16.20;65.40
16032;DHT22;8120;48.308;8.914;2023-07-31T06:15:44;16.30;65.30
16032;DHT22;8120;48.308;8.914;2023-07-31T06:18:13;16.20;64.40
16032;DHT22;8120;48.308;8.914;2023-07-31T06:20:41;16.30;65.20
16032;DHT22;8120;48.308;8.914;2023-07-31T06:23:09;16.50;64.60
16032;DHT22;8120;48.308;8.914;2023-07-31T06:25:36;16.80;63.40
16032;DHT22;8120;48.308;8.914;2023-07-31T06:28:04;17.30;61.30
16032;DHT22;8120;48.308;8.914;2023-07-31T06:30:32;17.70;59.80
16032;DHT22;8120;48.308;8.914;2023-07-31T06:33:00;18.00;59.40
16032;DHT22;8120;48.308;8.914;2023-07-31T06:35:29;18.80;58.00
16032;DHT22;8120;48.308;8.914;2023-07-31T06:37:57;18.90;56.30
16032;DHT22;8120;48.308;8.914;2023-07-31T06:40:26;18.40;56.40
16032;DHT22;8120;48.308;8.914;2023-07-31T06:42:54;18.00;57.20
16032;DHT22;8120;48.308;8.914;2023-07-31T06:45:21;18.10;58.00
16032;DHT22;8120;48.308;8.914;2023-07-31T06:47:49;18.30;58.00
16032;DHT22;8120;48.308;8.914;2023-07-31T06:50:17;18.00;57.30
16032;DHT22;8120;48.308;8.914;2023-07-31T06:52:47;17.90;58.00
16032;DHT22;8120;48.308;8.914;2023-07-31T06:55:19;17.80;57.60
16032;DHT22;8120;48.308;8.914;2023-07-31T06:57:47;17.80;58.40
16032;DHT22;8120;48.308;8.914;2023-07-31T07:00:16;18.20;57.30
16032;DHT22;8120;48.308;8.914;2023-07-31T07:02:44;18.40;56.70
16032;DHT22;8120;48.308;8.914;2023-07-31T07:05:14;18.60;55.90
16032;DHT22;8120;48.308;8.914;2023-07-31T07:07:42;18.60;54.90
16032;DHT22;8120;48.308;8.914;2023-07-31T07:10:12;19.00;54.60
16032;DHT22;8120;48.308;8.914;2023-07-31T07:12:40;19.90;53.20
16032;DHT22;8120;48.308;8.914;2023-07-31T07:15:08;20.60;51.80
16032;DHT22;8120;48.308;8.914;2023-07-31T07:17:36;20.50;51.20
16032;DHT22;8120;48.308;8.914;2023-07-31T07:20:05;20.40;51.50
16032;DHT22;8120;48.308;8.914;2023-07-31T07:22:34;19.90;52.00
16032;DHT22;8120;48.308;8.914;2023-07-31T07:25:02;19.90;51.90
16032;DHT22;8120;48.308;8.914;2023-07-31T07:27:31;19.60;53.20
16032;DHT22;8120;48.308;8.914;2023-07-31T07:29:59;19.40;53.40
16032;DHT22;8120;48.308;8.914;2023-07-31T07:32:27;19.10;54.10
16032;DHT22;8120;48.308;8.914;2023-07-31T07:34:55;18.80;55.20
16032;DHT22;8120;48.308;8.914;2023-07-31T07:37:23;18.80;55.10
16032;DHT22;8120;48.308;8.914;2023-07-31T07:39:51;18.20;55.50
16032;DHT22;8120;48.308;8.914;2023-07-31T07:42:19;18.60;55.40
16032;DHT22;8120;48.308;8.914;2023-07-31T07:44:48;18.60;54.70
16032;DHT22;8120;48.308;8.914;2023-07-31T07:47:16;18.60;55.70
16032;DHT22;8120;48.308;8.914;2023-07-31T07:49:44;18.70;54.80
16032;DHT22;8120;48.308;8.914;2023-07-31T07:52:19;18.70;54.50
16032;DHT22;8120;48.308;8.914;2023-07-31T07:54:47;18.30;55.20
16032;DHT22;8120;48.308;8.914;2023-07-31T07:57:14;19.00;55.20
16032;DHT22;8120;48.308;8.914;2023-07-31T07:59:42;19.50;53.80
16032;DHT22;8120;48.308;8.914;2023-07-31T08:02:11;19.90;53.10
16032;DHT22;8120;48.308;8.914;2023-07-31T08:04:39;20.20;52.40
16032;DHT22;8120;48.308;8.914;2023-07-31T08:07:07;19.90;53.20
16032;DHT22;8120;48.308;8.914;2023-07-31T08:09:35;19.70;53.40
16032;DHT22;8120;48.308;8.914;2023-07-31T08:12:04;19.70;53.30
16032;DHT22;8120;48.308;8.914;2023-07-31T08:14:32;20.20;51.70
16032;DHT22;8120;48.308;8.914;2023-07-31T08:17:00;21.10;51.90
16032;DHT22;8120;48.308;8.914;2023-07-31T08:19:29;21.20;49.60
16032;DHT22;8120;48.308;8.914;2023-07-31T08:21:57;20.80;50.60
16032;DHT22;8120;48.308;8.914;2023-07-31T08:24:25;20.80;51.20
16032;DHT22;8120;48.308;8.914;2023-07-31T08:26:53;20.60;50.20
16032;DHT22;8120;48.308;8.914;2023-07-31T08:29:21;20.80;51.20
16032;DHT22;8120;48.308;8.914;2023-07-31T08:31:49;21.20;50.60
16032;DHT22;8120;48.308;8.914;2023-07-31T08:34:17;21.30;49.90
16032;DHT22;8120;48.308;8.914;2023-07-31T08:36:46;20.70;50.50
16032;DHT22;8120;48.308;8.914;2023-07-31T08:39:14;20.80;50.30
16032;DHT22;8120;48.308;8.914;2023-07-31T08:41:42;21.20;49.60
16032;DHT22;8120;48.308;8.914;2023-07-31T08:44:10;21.30;49.90
16032;DHT22;8120;48.308;8.914;2023-07-31T08:46:39;20.70;49.90
16032;DHT22;8120;48.308;8.914;2023-07-31T08:49:09;20.00;52.30
16032;DHT22;8120;48.308;8.914;2023-07-31T08:51:38;20.40;51.60
16032;DHT22;8120;48.308;8.914;2023-07-31T08:54:08;21.10;50.50
16032;DHT22;8120;48.308;8.914;2023-07-31T08:56:36;21.30;51.00
16032;DHT22;8120;48.308;8.914;2023-07-31T08:59:05;21.40;50.00
16032;DHT22;8120;48.308;8.914;2023-07-31T09:01:36;21.30;50.40
16032;DHT22;8120;48.308;8.914;2023-07-31T09:04:08;20.40;51.40
16032;DHT22;8120;48.308;8.914;2023-07-31T09:06:37;20.50;51.90
16032;DHT22;8120;48.308;8.914;2023-07-31T09:09:07;21.10;52.20
16032;DHT22;8120;48.308;8.914;2023-07-31T09:11:36;21.30;49.90
16032;DHT22;8120;48.308;8.914;2023-07-31T09:14:05;22.00;50.20
16032;DHT22;8120;48.308;8.914;2023-07-31T09:16:35;22.40;48.00
16032;DHT22;8120;48.308;8.914;2023-07-31T09:19:04;22.50;48.70
16032;DHT22;8120;48.308;8.914;2023-07-31T09:21:32;22.30;48.90
16032;DHT22;8120;48.308;8.914;2023-07-31T09:24:00;21.90;48.90
16032;DHT22;8120;48.308;8.914;2023-07-31T09:26:33;21.90;49.60
16032;DHT22;8120;48.308;8.914;2023-07-31T09:29:05;21.70;50.10
16032;DHT22;8120;48.308;8.914;2023-07-31T09:31:41;21.60;49.90
16032;DHT22;8120;48.308;8.914;2023-07-31T09:34:10;21.80;49.30
16032;DHT22;8120;48.308;8.914;2023-07-31T09:36:41;22.40;49.90
16032;DHT22;8120;48.308;8.914;2023-07-31T09:39:10;22.60;48.80
16032;DHT22;8120;48.308;8.914;2023-07-31T09:41:43;22.60;48.70
16032;DHT22;8120;48.308;8.914;2023-07-31T09:44:11;22.60;48.90
16032;DHT22;8120;48.308;8.914;2023-07-31T09:46:39;22.30;48.70
16032;DHT22;8120;48.308;8.914;2023-07-31T09:49:08;21.90;49.10
16032;DHT22;8120;48.308;8.914;2023-07-31T09:51:37;21.90;48.80
16032;DHT22;8120;48.308;8.914;2023-07-31T09:54:12;21.50;49.00
16032;DHT22;8120;48.308;8.914;2023-07-31T09:56:44;21.60;49.50
16032;DHT22;8120;48.308;8.914;2023-07-31T09:59:13;21.70;49.60
16032;DHT22;8120;48.308;8.914;2023-07-31T10:01:42;21.70;49.10
16032;DHT22;8120;48.308;8.914;2023-07-31T10:04:10;21.70;49.20
16032;DHT22;8120;48.308;8.914;2023-07-31T10:06:40;22.10;49.40
16032;DHT22;8120;48.308;8.914;2023-07-31T10:09:09;22.10;48.20
16032;DHT22;8120;48.308;8.914;2023-07-31T10:11:44;22.80;48.90
16032;DHT22;8120;48.308;8.914;2023-07-31T10:14:18;22.80;48.30
16032;DHT22;8120;48.308;8.914;2023-07-31T10:16:47;22.90;47.90
16032;DHT22;8120;48.308;8.914;2023-07-31T10:19:15;22.50;47.10
16032;DHT22;8120;48.308;8.914;2023-07-31T10:21:44;22.70;47.80
16032;DHT22;8120;48.308;8.914;2023-07-31T10:24:13;23.00;47.20
16032;DHT22;8120;48.308;8.914;2023-07-31T10:26:45;23.00;46.90
16032;DHT22;8120;48.308;8.914;2023-07-31T10:29:15;22.70;46.90
16032;DHT22;8120;48.308;8.914;2023-07-31T10:31:44;23.10;47.60
16032;DHT22;8120;48.308;8.914;2023-07-31T10:34:13;23.40;46.30
16032;DHT22;8120;48.308;8.914;2023-07-31T10:36:41;23.40;46.40
16032;DHT22;8120;48.308;8.914;2023-07-31T10:39:33;23.60;46.80
16032;DHT22;8120;48.308;8.914;2023-07-31T10:42:11;23.40;46.70
16032;DHT22;8120;48.308;8.914;2023-07-31T10:44:43;23.40;46.10
16032;DHT22;8120;48.308;8.914;2023-07-31T10:47:14;23.50;45.20
16032;DHT22;8120;48.308;8.914;2023-07-31T10:49:45;23.20;46.10
16032;DHT22;8120;48.308;8.914;2023-07-31T10:52:13;23.50;46.30
16032;DHT22;8120;48.308;8.914;2023-07-31T10:54:41;23.40;46.90
16032;DHT22;8120;48.308;8.914;2023-07-31T10:57:20;23.10;46.80
16032;DHT22;8120;48.308;8.914;2023-07-31T10:59:50;23.60;46.30
16032;DHT22;8120;48.308;8.914;2023-07-31T11:02:25;24.10;46.00
16032;DHT22;8120;48.308;8.914;2023-07-31T11:05:06;23.70;45.40
16032;DHT22;8120;48.308;8.914;2023-07-31T11:07:47;23.80;45.40
16032;DHT22;8120;48.308;8.914;2023-07-31T11:10:18;23.30;44.90
16032;DHT22;8120;48.308;8.914;2023-07-31T11:12:48;23.10;46.50
16032;DHT22;8120;48.308;8.914;2023-07-31T11:15:16;23.20;45.40
16032;DHT22;8120;48.308;8.914;2023-07-31T11:17:44;23.50;45.80
16032;DHT22;8120;48.308;8.914;2023-07-31T11:20:12;24.20;44.70
16032;DHT22;8120;48.308;8.914;2023-07-31T11:22:40;24.00;45.30
16032;DHT22;8120;48.308;8.914;2023-07-31T11:25:09;23.90;44.90
16032;DHT22;8120;48.308;8.914;2023-07-31T11:27:39;23.40;45.70
16032;DHT22;8120;48.308;8.914;2023-07-31T11:30:11;23.60;46.30
16032;DHT22;8120;48.308;8.914;2023-07-31T11:32:40;24.00;45.20
16032;DHT22;8120;48.308;8.914;2023-07-31T11:35:12;24.20;45.10
16032;DHT22;8120;48.308;8.914;2023-07-31T11:37:40;24.30;43.70
16032;DHT22;8120;48.308;8.914;2023-07-31T11:40:09;24.10;44.30
16032;DHT22;8120;48.308;8.914;2023-07-31T11:42:37;24.50;43.90
16032;DHT22;8120;48.308;8.914;2023-07-31T11:45:06;25.00;43.10
16032;DHT22;8120;48.308;8.914;2023-07-31T11:47:37;25.80;42.50
16032;DHT22;8120;48.308;8.914;2023-07-31T11:50:06;25.50;41.80
16032;DHT22;8120;48.308;8.914;2023-07-31T11:52:39;24.80;43.10
16032;DHT22;8120;48.308;8.914;2023-07-31T11:55:09;24.30;44.00
16032;DHT22;8120;48.308;8.914;2023-07-31T11:57:39;24.30;44.20
16032;DHT22;8120;48.308;8.914;2023-07-31T12:00:09;24.10;44.60
16032;DHT22;8120;48.308;8.914;2023-07-31T12:02:39;23.70;44.00
16032;DHT22;8120;48.308;8.914;2023-07-31T12:05:10;23.90;45.00
16032;DHT22;8120;48.308;8.914;2023-07-31T12:07:46;24.20;44.30
16032;DHT22;8120;48.308;8.914;2023-07-31T12:10:32;24.30;44.20
16032;DHT22;8120;48.308;8.914;2023-07-31T12:13:02;25.10;42.70
16032;DHT22;8120;48.308;8.914;2023-07-31T12:15:38;25.20;42.50
16032;DHT22;8120;48.308;8.914;2023-07-31T12:18:09;25.10;43.30
16032;DHT22;8120;48.308;8.914;2023-07-31T12:20:41;25.10;42.20
16032;DHT22;8120;48.308;8.914;2023-07-31T12:23:14;24.90;43.20
16032;DHT22;8120;48.308;8.914;2023-07-31T12:25:42;25.00;42.70
16032;DHT22;8120;48.308;8.914;2023-07-31T12:28:10;24.60;43.60
16032;DHT22;8120;48.308;8.914;2023-07-31T12:30:41;24.30;44.70
16032;DHT22;8120;48.308;8.914;2023-07-31T12:33:14;24.60;45.80
16032;DHT22;8120;48.308;8.914;2023-07-31T12:35:44;25.20;43.10
16032;DHT22;8120;48.308;8.914;2023-07-31T12:38:13;25.20;43.70
16032;DHT22;8120;48.308;8.914;2023-07-31T12:40:41;25.10;44.90
16032;DHT22;8120;48.308;8.914;2023-07-31T12:43:09;24.70;43.60
16032;DHT22;8120;48.308;8.914;2023-07-31T12:45:37;25.00;44.10
16032;DHT22;8120;48.308;8.914;2023-07-31T12:48:05;25.70;43.00
16032;DHT22;8120;48.308;8.914;2023-07-31T12:50:34;25.50;42.40
16032;DHT22;8120;48.308;8.914;2023-07-31T12:53:03;24.90;43.60
16032;DHT22;8120;48.308;8.914;2023-07-31T12:55:31;23.70;45.20
16032;DHT22;8120;48.308;8.914;2023-07-31T12:58:00;24.10;44.90
16032;DHT22;8120;48.308;8.914;2023-07-31T13:00:28;23.90;46.40
16032;DHT22;8120;48.308;8.914;2023-07-31T13:02:56;23.80;45.60
16032;DHT22;8120;48.308;8.914;2023-07-31T13:05:24;23.30;47.40
16032;DHT22;8120;48.308;8.914;2023-07-31T13:07:54;23.50;48.00
16032;DHT22;8120;48.308;8.914;2023-07-31T13:10:22;23.90;50.80
16032;DHT22;8120;48.308;8.914;2023-07-31T13:12:50;23.20;51.70
16032;DHT22;8120;48.308;8.914;2023-07-31T13:15:18;23.20;50.70
16032;DHT22;8120;48.308;8.914;2023-07-31T13:17:46;23.30;49.70
16032;DHT22;8120;48.308;8.914;2023-07-31T13:20:14;23.30;49.40
16032;DHT22;8120;48.308;8.914;2023-07-31T13:22:42;23.40;49.00
16032;DHT22;8120;48.308;8.914;2023-07-31T13:25:14;23.50;49.80
16032;DHT22;8120;48.308;8.914;2023-07-31T13:27:42;23.70;49.30
16032;DHT22;8120;48.308;8.914;2023-07-31T13:30:09;24.20;49.60
16032;DHT22;8120;48.308;8.914;2023-07-31T13:32:37;24.40;48.30
16032;DHT22;8120;48.308;8.914;2023-07-31T13:35:06;23.80;48.20
16032;DHT22;8120;48.308;8.914;2023-07-31T13:37:34;23.90;49.30
16032;DHT22;8120;48.308;8.914;2023-07-31T13:40:03;23.90;48.10
16032;DHT22;8120;48.308;8.914;2023-07-31T13:42:33;23.50;49.10
16032;DHT22;8120;48.308;8.914;2023-07-31T13:45:01;23.70;49.20
16032;DHT22;8120;48.308;8.914;2023-07-31T13:47:33;23.10;49.30
16032;DHT22;8120;48.308;8.914;2023-07-31T13:50:01;23.80;49.50
16032;DHT22;8120;48.308;8.914;2023-07-31T13:52:30;24.30;47.70
16032;DHT22;8120;48.308;8.914;2023-07-31T13:54:57;24.40;47.00
16032;DHT22;8120;48.308;8.914;2023-07-31T13:57:25;23.50;49.00
16032;DHT22;8120;48.308;8.914;2023-07-31T13:59:55;23.20;50.00
16032;DHT22;8120;48.308;8.914;2023-07-31T14:02:22;23.40;48.90
16032;DHT22;8120;48.308;8.914;2023-07-31T14:04:50;23.30;48.90
16032;DHT22;8120;48.308;8.914;2023-07-31T14:07:18;22.90;50.80
16032;DHT22;8120;48.308;8.914;2023-07-31T14:09:46;23.30;49.70
16032;DHT22;8120;48.308;8.914;2023-07-31T14:12:14;23.30;49.30
16032;DHT22;8120;48.308;8.914;2023-07-31T14:15:03;23.50;48.90
16032;DHT22;8120;48.308;8.914;2023-07-31T14:17:31;23.80;49.00
16032;DHT22;8120;48.308;8.914;2023-07-31T14:19:59;23.50;49.30
16032;DHT22;8120;48.308;8.914;2023-07-31T14:22:28;23.60;48.40
16032;DHT22;8120;48.308;8.914;2023-07-31T14:24:56;23.20;49.30
16032;DHT22;8120;48.308;8.914;2023-07-31T14:27:24;23.30;49.10
16032;DHT22;8120;48.308;8.914;2023-07-31T14:29:52;22.90;50.00
16032;DHT22;8120;48.308;8.914;2023-07-31T14:32:22;23.00;50.30
16032;DHT22;8120;48.308;8.914;2023-07-31T14:34:52;22.70;49.80
16032;DHT22;8120;48.308;8.914;2023-07-31T14:37:21;22.60;50.50
16032;DHT22;8120;48.308;8.914;2023-07-31T14:39:49;22.90;49.90
16032;DHT22;8120;48.308;8.914;2023-07-31T14:42:17;22.80;49.50
16032;DHT22;8120;48.308;8.914;2023-07-31T14:44:46;22.80;49.50
16032;DHT22;8120;48.308;8.914;2023-07-31T14:47:14;22.70;50.60
16032;DHT22;8120;48.308;8.914;2023-07-31T14:49:43;22.40;50.70
16032;DHT22;8120;48.308;8.914;2023-07-31T14:52:11;22.30;50.70
16032;DHT22;8120;48.308;8.914;2023-07-31T14:54:39;22.30;51.00
16032;DHT22;8120;48.308;8.914;2023-07-31T14:57:07;22.50;51.30
16032;DHT22;8120;48.308;8.914;2023-07-31T14:59:35;22.40;50.70
16032;DHT22;8120;48.308;8.914;2023-07-31T15:02:03;22.40;51.00
16032;DHT22;8120;48.308;8.914;2023-07-31T15:04:31;22.40;49.90
16032;DHT22;8120;48.308;8.914;2023-07-31T15:07:01;22.40;49.90
16032;DHT22;8120;48.308;8.914;2023-07-31T15:09:28;22.40;50.40
16032;DHT22;8120;48.308;8.914;2023-07-31T15:11:57;22.20;50.90
16032;DHT22;8120;48.308;8.914;2023-07-31T15:14:25;22.20;50.90
16032;DHT22;8120;48.308;8.914;2023-07-31T15:16:54;22.20;49.60
16032;DHT22;8120;48.308;8.914;2023-07-31T15:19:22;22.10;49.80
16032;DHT22;8120;48.308;8.914;2023-07-31T15:21:50;22.00;49.90
16032;DHT22;8120;48.308;8.914;2023-07-31T15:24:20;22.10;50.30
16032;DHT22;8120;48.308;8.914;2023-07-31T15:26:48;22.40;49.40
16032;DHT22;8120;48.308;8.914;2023-07-31T15:29:15;22.30;50.10
16032;DHT22;8120;48.308;8.914;2023-07-31T15:31:46;22.30;50.30
16032;DHT22;8120;48.308;8.914;2023-07-31T15:34:15;22.30;49.60
16032;DHT22;8120;48.308;8.914;2023-07-31T15:36:43;22.30;49.70
16032;DHT22;8120;48.308;8.914;2023-07-31T15:39:10;22.20;50.30
16032;DHT22;8120;48.308;8.914;2023-07-31T15:41:40;22.40;49.90
16032;DHT22;8120;48.308;8.914;2023-07-31T15:44:08;22.50;49.80
16032;DHT22;8120;48.308;8.914;2023-07-31T15:46:36;22.20;50.40
16032;DHT22;8120;48.308;8.914;2023-07-31T15:49:05;22.20;50.50
16032;DHT22;8120;48.308;8.914;2023-07-31T15:51:33;22.20;50.10
16032;DHT22;8120;48.308;8.914;2023-07-31T15:54:01;22.20;50.80
16032;DHT22;8120;48.308;8.914;2023-07-31T15:56:29;22.40;50.60